createdAt,value
2019-05-26T12:00:30.778Z,43.34
2019-05-26T12:01:06.306Z,42.91
2019-05-26T12:01:42.054Z,41.66
2019-05-26T12:02:17.005Z,39.55
2019-05-26T12:02:52.282Z,39.02
2019-05-26T12:03:27.743Z,39.23
2019-05-26T12:04:03.167Z,38.93
2019-05-26T12:04:38.605Z,38.06
2019-05-26T12:05:17.443Z,38.27
2019-05-26T12:05:51.363Z,39.22
2019-05-26T12:06:26.859Z,39.41
2019-05-26T12:07:04.502Z,39.06
2019-05-26T12:07:39.021Z,39.00
2019-05-26T12:08:14.253Z,38.50
2019-05-26T12:08:49.735Z,37.91
2019-05-26T12:09:24.860Z,37.93
2019-05-26T12:10:00.354Z,37.48
2019-05-26T12:10:35.860Z,37.27
2019-05-26T12:11:10.982Z,36.41
2019-05-26T12:11:46.262Z,36.18
2019-05-26T12:12:21.897Z,34.24
2019-05-26T12:12:56.863Z,34.60
2019-05-26T12:13:32.262Z,34.33
2019-05-26T12:14:07.988Z,34.58
2019-05-26T12:14:42.911Z,33.74
2019-05-26T12:15:19.807Z,33.66
2019-05-26T12:15:55.498Z,33.70
2019-05-26T12:16:30.637Z,33.63
2019-05-26T12:17:06.071Z,33.96
2019-05-26T12:17:41.434Z,33.79
2019-05-26T12:18:16.422Z,33.71
2019-05-26T12:18:51.677Z,34.19
2019-05-26T12:19:27.042Z,34.03
2019-05-26T12:20:05.113Z,34.04
2019-05-26T12:20:39.223Z,34.39
2019-05-26T12:21:14.568Z,34.57
2019-05-26T12:21:49.656Z,34.75
2019-05-26T12:22:25.004Z,35.62
2019-05-26T12:23:00.635Z,35.63
2019-05-26T12:23:35.444Z,35.56
2019-05-26T12:24:10.920Z,35.30
2019-05-26T12:24:46.407Z,35.63
2019-05-26T12:25:21.558Z,35.32
2019-05-26T12:25:57.010Z,35.55
2019-05-26T12:26:32.833Z,35.45
2019-05-26T12:27:08.009Z,35.69
2019-05-26T12:27:43.327Z,36.57
2019-05-26T12:28:18.778Z,36.97
2019-05-26T12:28:53.746Z,37.29
2019-05-26T12:29:28.980Z,36.90
2019-05-26T12:30:06.781Z,36.59
2019-05-26T12:30:41.713Z,37.45
2019-05-26T12:31:17.021Z,37.01
2019-05-26T12:31:52.514Z,36.12
2019-05-26T12:32:27.492Z,36.33
2019-05-26T12:33:02.833Z,35.97
2019-05-26T12:33:38.596Z,36.40
2019-05-26T12:34:13.543Z,36.08
2019-05-26T12:34:48.846Z,35.81
2019-05-26T12:35:25.379Z,36.02
2019-05-26T12:36:00.178Z,36.73
2019-05-26T12:36:39.023Z,36.92
2019-05-26T12:37:12.969Z,37.23
2019-05-26T12:37:48.671Z,36.97
2019-05-26T12:38:24.222Z,36.80
2019-05-26T12:38:59.581Z,36.84
2019-05-26T12:39:34.499Z,36.13
2019-05-26T12:40:11.587Z,36.00
2019-05-26T12:40:47.021Z,36.23
2019-05-26T12:41:22.866Z,37.56
2019-05-26T12:41:58.154Z,38.01
2019-05-26T12:42:33.561Z,37.90
2019-05-26T12:43:08.511Z,37.36
2019-05-26T12:43:43.770Z,38.04
2019-05-26T12:44:19.300Z,37.07
2019-05-26T12:44:54.489Z,37.40
2019-05-26T12:45:29.724Z,37.14
2019-05-26T12:46:05.306Z,37.65
2019-05-26T12:46:40.570Z,38.37
2019-05-26T12:47:16.017Z,37.31
2019-05-26T12:47:51.493Z,36.99
2019-05-26T12:48:27.042Z,37.46
2019-05-26T12:49:02.237Z,37.41
2019-05-26T12:49:37.743Z,37.88
2019-05-26T12:50:13.057Z,37.87
2019-05-26T12:50:48.466Z,38.20
2019-05-26T12:51:23.953Z,38.43
2019-05-26T12:51:58.889Z,38.43
2019-05-26T12:52:34.700Z,37.22
2019-05-26T12:53:10.134Z,36.67
2019-05-26T12:53:45.073Z,36.84
2019-05-26T12:54:20.394Z,37.59
2019-05-26T12:54:56.099Z,38.01
2019-05-26T12:55:31.102Z,37.83
2019-05-26T12:56:06.417Z,38.11
2019-05-26T12:56:41.855Z,38.14
2019-05-26T12:57:16.827Z,37.89
2019-05-26T12:57:52.261Z,37.65
2019-05-26T12:58:28.081Z,37.43
2019-05-26T12:59:03.111Z,37.41
2019-05-26T12:59:38.527Z,37.88
2019-05-26T13:00:14.590Z,37.72
2019-05-26T13:00:53.819Z,37.50
2019-05-26T13:01:26.524Z,37.17
2019-05-26T13:02:02.327Z,37.09
2019-05-26T13:02:37.305Z,37.01
2019-05-26T13:03:12.762Z,37.29
2019-05-26T13:03:48.663Z,36.76
2019-05-26T13:04:23.578Z,36.10
2019-05-26T13:04:58.964Z,36.68
2019-05-26T13:05:34.504Z,37.12
2019-05-26T13:06:09.482Z,37.42
2019-05-26T13:06:44.568Z,37.10
2019-05-26T13:07:20.523Z,36.70
2019-05-26T13:07:55.594Z,36.36
2019-05-26T13:08:30.918Z,36.39
2019-05-26T13:09:09.979Z,36.43
2019-05-26T13:09:45.246Z,35.29
2019-05-26T13:10:20.946Z,34.97
2019-05-26T13:10:56.803Z,35.45
2019-05-26T13:11:31.687Z,35.46
2019-05-26T13:12:07.312Z,34.74
2019-05-26T13:12:42.753Z,34.08
2019-05-26T13:13:17.738Z,33.95
2019-05-26T13:13:53.045Z,34.38
2019-05-26T13:14:28.682Z,35.00
2019-05-26T13:15:06.227Z,36.53
2019-05-26T13:15:41.831Z,36.12
2019-05-26T13:16:17.412Z,36.97
2019-05-26T13:16:52.661Z,36.58
2019-05-26T13:17:27.961Z,37.40
2019-05-26T13:18:03.729Z,35.83
2019-05-26T13:18:38.630Z,36.56
2019-05-26T13:19:14.129Z,36.65
2019-05-26T13:19:49.667Z,36.55
2019-05-26T13:20:25.702Z,36.84
2019-05-26T13:21:01.229Z,37.05
2019-05-26T13:21:36.744Z,36.37
2019-05-26T13:22:11.853Z,36.86
2019-05-26T13:22:47.291Z,36.67
2019-05-26T13:23:23.048Z,36.53
2019-05-26T13:23:57.955Z,37.18
2019-05-26T13:24:33.218Z,36.65
2019-05-26T13:25:09.648Z,36.95
2019-05-26T13:25:44.753Z,36.90
2019-05-26T13:26:20.409Z,37.01
2019-05-26T13:26:55.936Z,37.62
2019-05-26T13:27:31.169Z,38.47
2019-05-26T13:28:06.716Z,38.10
2019-05-26T13:28:42.278Z,38.19
2019-05-26T13:29:17.404Z,38.25
2019-05-26T13:29:52.591Z,37.59
2019-05-26T13:30:29.938Z,38.26
2019-05-26T13:31:05.015Z,37.66
2019-05-26T13:31:40.315Z,38.29
2019-05-26T13:32:15.739Z,37.73
2019-05-26T13:32:50.658Z,37.59
2019-05-26T13:33:25.934Z,36.84
2019-05-26T13:34:01.692Z,38.46
2019-05-26T13:34:36.723Z,37.93
2019-05-26T13:35:12.487Z,37.47
2019-05-26T13:35:48.162Z,37.74
2019-05-26T13:36:23.297Z,36.59
2019-05-26T13:36:58.652Z,36.52
2019-05-26T13:37:34.280Z,36.96
2019-05-26T13:38:10.069Z,36.87
2019-05-26T13:38:45.641Z,37.83
2019-05-26T13:39:21.184Z,37.27
2019-05-26T13:39:56.023Z,36.66
2019-05-26T13:40:31.437Z,36.63
2019-05-26T13:41:07.041Z,37.08
2019-05-26T13:41:41.914Z,36.68
2019-05-26T13:42:17.249Z,36.82
2019-05-26T13:42:52.985Z,37.16
2019-05-26T13:43:28.078Z,37.12
2019-05-26T13:44:03.589Z,36.08
2019-05-26T13:44:39.219Z,36.93
2019-05-26T13:45:22.227Z,36.16
2019-05-26T13:45:53.611Z,36.71
2019-05-26T13:46:29.190Z,36.51
2019-05-26T13:47:04.272Z,36.20
2019-05-26T13:47:39.662Z,36.82
2019-05-26T13:48:15.251Z,37.56
2019-05-26T13:48:50.215Z,37.38
2019-05-26T13:49:25.685Z,36.54
2019-05-26T13:50:01.300Z,36.96
2019-05-26T13:50:36.644Z,38.09
2019-05-26T13:51:11.863Z,38.73
2019-05-26T13:51:50.365Z,38.69
2019-05-26T13:52:24.396Z,38.82
2019-05-26T13:52:59.819Z,38.34
2019-05-26T13:53:35.363Z,37.96
2019-05-26T13:54:10.494Z,38.16
2019-05-26T13:54:45.817Z,39.03
2019-05-26T13:55:21.843Z,39.05
2019-05-26T13:55:57.085Z,38.66
2019-05-26T13:56:32.620Z,38.24
2019-05-26T13:57:08.150Z,37.36
2019-05-26T13:57:43.361Z,38.06
2019-05-26T13:58:18.895Z,37.63
2019-05-26T13:58:54.330Z,38.51
2019-05-26T13:59:29.511Z,39.30
2019-05-26T14:00:09.748Z,39.48
2019-05-26T14:00:45.376Z,39.79
2019-05-26T14:01:20.716Z,37.81
2019-05-26T14:01:55.917Z,37.71
2019-05-26T14:02:31.555Z,36.72
2019-05-26T14:03:06.615Z,36.92
2019-05-26T14:03:41.921Z,37.01
2019-05-26T14:04:17.567Z,36.76
2019-05-26T14:04:53.112Z,36.82
2019-05-26T14:05:28.632Z,37.20
2019-05-26T14:06:04.264Z,38.62
2019-05-26T14:06:39.381Z,37.65
2019-05-26T14:07:14.642Z,37.45
2019-05-26T14:07:50.316Z,36.83
2019-05-26T14:08:25.260Z,37.19
2019-05-26T14:09:02.254Z,37.85
2019-05-26T14:09:38.385Z,37.69
2019-05-26T14:10:15.525Z,38.00
2019-05-26T14:10:50.823Z,38.43
2019-05-26T14:11:26.269Z,38.59
2019-05-26T14:12:01.557Z,38.33
2019-05-26T14:12:36.991Z,37.92
2019-05-26T14:13:13.424Z,38.66
2019-05-26T14:13:48.226Z,38.45
2019-05-26T14:14:23.408Z,38.29
2019-05-26T14:14:59.572Z,38.63
2019-05-26T14:15:38.750Z,38.87
2019-05-26T14:16:12.647Z,38.70
2019-05-26T14:16:50.241Z,38.39
2019-05-26T14:17:27.025Z,38.06
2019-05-26T14:18:03.721Z,38.54
2019-05-26T14:18:39.289Z,38.73
2019-05-26T14:19:14.954Z,39.15
2019-05-26T14:19:52.064Z,38.55
2019-05-26T14:20:37.066Z,37.98
2019-05-26T14:21:12.074Z,38.36
2019-05-26T14:21:47.376Z,37.86
2019-05-26T14:22:22.904Z,37.64
2019-05-26T14:22:57.695Z,37.28
2019-05-26T14:23:32.929Z,37.11
2019-05-26T14:24:08.632Z,37.29
2019-05-26T14:24:53.359Z,37.35
2019-05-26T14:25:20.699Z,37.65
2019-05-26T14:25:56.334Z,37.83
2019-05-26T14:26:31.443Z,38.10
2019-05-26T14:27:07.165Z,36.93
2019-05-26T14:27:42.785Z,37.46
2019-05-26T14:28:17.766Z,37.74
2019-05-26T14:28:53.266Z,37.64
2019-05-26T14:29:28.944Z,37.40
2019-05-26T14:30:05.781Z,37.04
2019-05-26T14:30:41.163Z,37.29
2019-05-26T14:31:16.434Z,37.71
2019-05-26T14:31:52.914Z,37.56
2019-05-26T14:32:28.492Z,36.82
2019-05-26T14:33:04.099Z,36.85
2019-05-26T14:33:39.231Z,36.84
2019-05-26T14:34:14.331Z,37.66
2019-05-26T14:34:49.982Z,37.49
2019-05-26T14:35:25.168Z,37.33
2019-05-26T14:36:00.677Z,37.05
2019-05-26T14:36:36.039Z,36.46
2019-05-26T14:37:11.058Z,36.40
2019-05-26T14:37:46.509Z,36.74
2019-05-26T14:38:22.049Z,36.77
2019-05-26T14:38:57.140Z,36.83
2019-05-26T14:39:32.373Z,36.79
2019-05-26T14:40:10.656Z,35.59
2019-05-26T14:40:45.539Z,35.36
2019-05-26T14:41:20.827Z,35.70
2019-05-26T14:41:56.559Z,36.28
2019-05-26T14:42:31.506Z,36.48
2019-05-26T14:43:07.880Z,35.86
2019-05-26T14:43:43.497Z,35.29
2019-05-26T14:44:18.352Z,35.31
2019-05-26T14:44:53.725Z,35.63
2019-05-26T14:45:29.232Z,35.64
2019-05-26T14:46:04.299Z,35.88
2019-05-26T14:46:39.538Z,35.96
2019-05-26T14:47:15.042Z,36.20
2019-05-26T14:47:49.970Z,36.02
2019-05-26T14:48:25.422Z,36.14
2019-05-26T14:49:01.119Z,36.71
2019-05-26T14:49:36.153Z,36.07
2019-05-26T14:50:12.321Z,35.57
2019-05-26T14:50:47.785Z,36.05
2019-05-26T14:51:22.766Z,36.52
2019-05-26T14:51:58.400Z,36.33
2019-05-26T14:52:34.178Z,36.25
2019-05-26T14:53:09.165Z,35.79
2019-05-26T14:53:44.623Z,36.05
2019-05-26T14:54:20.143Z,35.47
2019-05-26T14:54:55.467Z,36.29
2019-05-26T14:55:31.054Z,36.23
2019-05-26T14:56:06.649Z,35.32
2019-05-26T14:56:41.693Z,35.58
2019-05-26T14:57:17.138Z,35.28
2019-05-26T14:57:52.696Z,35.99
2019-05-26T14:58:27.631Z,35.95
2019-05-26T14:59:02.907Z,36.13
2019-05-26T14:59:38.739Z,36.05
2019-05-26T15:00:15.809Z,34.52
2019-05-26T15:00:50.968Z,34.33
2019-05-26T15:01:26.814Z,34.82
2019-05-26T15:02:01.738Z,34.93
2019-05-26T15:02:37.204Z,35.45
2019-05-26T15:03:12.679Z,35.44
2019-05-26T15:03:47.610Z,35.25
2019-05-26T15:04:22.813Z,34.71
2019-05-26T15:04:58.578Z,34.98
2019-05-26T15:05:33.532Z,35.22
2019-05-26T15:06:09.120Z,34.95
2019-05-26T15:06:44.829Z,34.99
2019-05-26T15:07:19.783Z,35.09
2019-05-26T15:07:55.161Z,34.77
2019-05-26T15:08:30.682Z,34.74
2019-05-26T15:09:22.365Z,34.55
2019-05-26T15:09:46.220Z,34.13
2019-05-26T15:10:23.229Z,34.01
2019-05-26T15:10:58.549Z,34.07
2019-05-26T15:11:33.810Z,34.51
2019-05-26T15:12:09.504Z,34.64
2019-05-26T15:12:44.356Z,35.36
2019-05-26T15:13:19.971Z,35.25
2019-05-26T15:13:55.472Z,35.26
2019-05-26T15:14:30.360Z,35.79
2019-05-26T15:15:07.663Z,35.96
2019-05-26T15:15:43.501Z,35.83
2019-05-26T15:16:18.339Z,34.94
2019-05-26T15:16:53.752Z,34.81
2019-05-26T15:17:29.404Z,35.06
2019-05-26T15:18:04.260Z,35.30
2019-05-26T15:18:39.641Z,35.42
2019-05-26T15:19:15.373Z,34.87
2019-05-26T15:19:50.383Z,33.76
2019-05-26T15:20:25.866Z,34.00
2019-05-26T15:21:01.603Z,34.27
2019-05-26T15:21:36.630Z,33.61
2019-05-26T15:22:11.950Z,34.89
2019-05-26T15:22:47.614Z,34.43
2019-05-26T15:23:22.658Z,34.75
2019-05-26T15:23:58.066Z,35.01
2019-05-26T15:24:33.602Z,34.71
2019-05-26T15:25:09.315Z,35.12
2019-05-26T15:25:45.057Z,35.32
2019-05-26T15:26:20.588Z,35.41
2019-05-26T15:26:55.729Z,35.58
2019-05-26T15:27:30.994Z,35.37
2019-05-26T15:28:06.720Z,35.08
2019-05-26T15:28:41.847Z,35.19
2019-05-26T15:29:17.160Z,35.44
2019-05-26T15:29:52.895Z,35.91
2019-05-26T15:30:30.803Z,35.76
2019-05-26T15:31:06.025Z,35.38
2019-05-26T15:31:42.595Z,35.86
2019-05-26T15:32:17.557Z,35.55
2019-05-26T15:32:53.155Z,35.97
2019-05-26T15:33:28.664Z,35.10
2019-05-26T15:34:03.713Z,34.76
2019-05-26T15:34:39.038Z,35.07
2019-05-26T15:35:14.817Z,35.14
2019-05-26T15:35:49.848Z,35.71
2019-05-26T15:36:25.149Z,33.24
2019-05-26T15:37:00.904Z,33.09
2019-05-26T15:37:35.705Z,33.26
2019-05-26T15:38:11.119Z,33.81
2019-05-26T15:38:46.642Z,33.25
2019-05-26T15:39:21.738Z,33.85
2019-05-26T15:39:57.441Z,34.32
2019-05-26T15:40:32.972Z,34.30
2019-05-26T15:41:07.846Z,34.23
2019-05-26T15:41:43.153Z,34.56
2019-05-26T15:42:18.902Z,35.29
2019-05-26T15:42:53.749Z,35.43
2019-05-26T15:43:29.281Z,35.35
2019-05-26T15:44:04.787Z,35.58
2019-05-26T15:44:39.752Z,35.64
2019-05-26T15:45:15.351Z,35.51
2019-05-26T15:45:50.811Z,35.68
2019-05-26T15:46:26.014Z,35.93
2019-05-26T15:47:01.782Z,36.27
2019-05-26T15:47:37.441Z,36.54
2019-05-26T15:48:12.814Z,37.03
2019-05-26T15:48:48.083Z,36.75
2019-05-26T15:49:23.686Z,37.38
2019-05-26T15:49:58.555Z,37.51
2019-05-26T15:50:34.063Z,37.35
2019-05-26T15:51:09.666Z,37.41
2019-05-26T15:51:44.600Z,37.62
2019-05-26T15:52:19.933Z,38.08
2019-05-26T15:52:55.450Z,37.04
2019-05-26T15:53:30.780Z,37.37
2019-05-26T15:54:06.193Z,37.26
2019-05-26T15:54:41.712Z,37.35
2019-05-26T15:55:17.119Z,36.57
2019-05-26T15:55:52.599Z,36.90
2019-05-26T15:56:28.306Z,35.51
2019-05-26T15:57:03.434Z,35.53
2019-05-26T15:57:38.860Z,35.90
2019-05-26T15:58:14.651Z,36.13
2019-05-26T15:58:49.643Z,36.10
2019-05-26T15:59:25.138Z,35.76
2019-05-26T16:00:01.158Z,34.75
2019-05-26T16:00:36.197Z,35.16
2019-05-26T16:01:11.645Z,34.83
2019-05-26T16:01:48.608Z,34.62
2019-05-26T16:02:23.466Z,35.69
2019-05-26T16:02:58.774Z,35.92
2019-05-26T16:03:34.550Z,34.83
2019-05-26T16:04:09.467Z,35.39
2019-05-26T16:04:45.611Z,35.35
2019-05-26T16:05:21.510Z,36.07
2019-05-26T16:05:56.500Z,36.04
2019-05-26T16:06:32.095Z,36.12
2019-05-26T16:07:07.620Z,35.09
2019-05-26T16:07:42.715Z,35.23
2019-05-26T16:08:18.237Z,35.07
2019-05-26T16:08:53.835Z,35.41
2019-05-26T16:09:28.849Z,35.74
2019-05-26T16:10:05.549Z,36.41
2019-05-26T16:10:41.101Z,36.82
2019-05-26T16:11:16.190Z,37.17
2019-05-26T16:11:51.489Z,36.70
2019-05-26T16:12:27.060Z,36.82
2019-05-26T16:13:02.060Z,36.74
2019-05-26T16:13:37.343Z,37.12
2019-05-26T16:14:12.970Z,36.85
2019-05-26T16:14:47.897Z,36.42
2019-05-26T16:15:23.551Z,36.49
2019-05-26T16:15:58.955Z,37.01
2019-05-26T16:16:41.367Z,37.11
2019-05-26T16:17:10.967Z,36.94
2019-05-26T16:17:46.492Z,36.95
2019-05-26T16:18:21.610Z,36.44
2019-05-26T16:18:57.157Z,36.69
2019-05-26T16:19:32.731Z,36.15
2019-05-26T16:20:09.954Z,36.02
2019-05-26T16:20:45.341Z,36.05
2019-05-26T16:21:28.067Z,36.10
2019-05-26T16:21:57.460Z,36.16
2019-05-26T16:22:32.787Z,36.77
2019-05-26T16:23:09.063Z,37.00
2019-05-26T16:23:44.361Z,36.79
2019-05-26T16:24:19.714Z,36.85
2019-05-26T16:24:55.397Z,37.09
2019-05-26T16:25:30.285Z,37.30
2019-05-26T16:26:05.782Z,36.81
2019-05-26T16:26:41.469Z,36.65
2019-05-26T16:27:19.631Z,37.01
2019-05-26T16:27:53.626Z,36.91
2019-05-26T16:28:29.239Z,36.94
2019-05-26T16:29:05.012Z,37.26
2019-05-26T16:29:40.054Z,38.00
2019-05-26T16:30:15.947Z,38.16
2019-05-26T16:30:50.951Z,37.65
2019-05-26T16:31:26.295Z,37.26
2019-05-26T16:32:01.803Z,37.38
2019-05-26T16:32:36.934Z,37.75
2019-05-26T16:33:12.537Z,37.82
2019-05-26T16:33:48.154Z,37.83
2019-05-26T16:34:23.226Z,37.40
2019-05-26T16:34:58.703Z,36.31
2019-05-26T16:35:34.261Z,36.75
2019-05-26T16:36:09.531Z,36.56
2019-05-26T16:36:45.191Z,36.13
2019-05-26T16:37:20.735Z,35.86
2019-05-26T16:37:55.764Z,36.60
2019-05-26T16:38:31.373Z,36.65
2019-05-26T16:39:08.692Z,36.70
2019-05-26T16:39:43.894Z,36.74
2019-05-26T16:40:19.284Z,36.60
2019-05-26T16:40:54.648Z,36.89
2019-05-26T16:41:29.524Z,36.63
2019-05-26T16:42:05.087Z,36.57
2019-05-26T16:42:40.681Z,36.68
2019-05-26T16:43:15.800Z,36.83
2019-05-26T16:43:51.283Z,36.92
2019-05-26T16:44:26.820Z,37.53
2019-05-26T16:45:02.075Z,37.48
2019-05-26T16:45:37.561Z,37.42
2019-05-26T16:46:13.217Z,37.14
2019-05-26T16:46:55.946Z,36.67
2019-05-26T16:47:25.066Z,36.57
2019-05-26T16:48:00.586Z,35.93
2019-05-26T16:48:35.723Z,36.32
2019-05-26T16:49:11.276Z,36.76
2019-05-26T16:49:46.946Z,36.57
2019-05-26T16:50:22.066Z,35.67
2019-05-26T16:50:57.461Z,35.49
2019-05-26T16:51:33.284Z,35.72
2019-05-26T16:52:08.402Z,35.63
2019-05-26T16:52:43.837Z,35.70
2019-05-26T16:53:19.430Z,35.31
2019-05-26T16:53:54.322Z,35.17
2019-05-26T16:54:29.415Z,35.54
2019-05-26T16:55:05.945Z,35.93
2019-05-26T16:55:41.080Z,36.06
2019-05-26T16:56:16.182Z,35.36
2019-05-26T16:56:51.249Z,35.47
2019-05-26T16:57:26.305Z,35.75
2019-05-26T16:58:06.525Z,36.15
2019-05-26T16:58:40.703Z,36.29
2019-05-26T16:59:15.676Z,36.29
2019-05-26T16:59:51.096Z,37.21
2019-05-26T17:00:26.866Z,37.54
2019-05-26T17:01:01.874Z,37.54
2019-05-26T17:01:37.378Z,36.82
2019-05-26T17:02:13.048Z,36.42
2019-05-26T17:02:48.564Z,36.54
2019-05-26T17:03:23.913Z,36.13
2019-05-26T17:03:59.735Z,36.01
2019-05-26T17:04:34.868Z,36.05
2019-05-26T17:05:10.253Z,36.46
2019-05-26T17:05:45.542Z,35.85
2019-05-26T17:06:20.720Z,36.36
2019-05-26T17:06:56.099Z,36.29
2019-05-26T17:07:31.888Z,36.61
2019-05-26T17:08:06.898Z,36.68
2019-05-26T17:08:42.498Z,35.57
2019-05-26T17:09:18.240Z,35.27
2019-05-26T17:09:53.575Z,35.62
2019-05-26T17:10:29.474Z,35.63
2019-05-26T17:11:05.330Z,35.74
2019-05-26T17:11:40.614Z,36.15
2019-05-26T17:12:16.233Z,36.02
2019-05-26T17:12:51.923Z,36.67
2019-05-26T17:13:27.097Z,37.13
2019-05-26T17:14:02.543Z,37.08
2019-05-26T17:14:38.580Z,36.85
2019-05-26T17:15:13.897Z,37.41
2019-05-26T17:15:49.189Z,36.95
2019-05-26T17:16:25.401Z,36.73
2019-05-26T17:17:14.131Z,36.46
2019-05-26T17:17:38.138Z,36.71
2019-05-26T17:18:13.863Z,37.00
2019-05-26T17:18:48.877Z,36.62
2019-05-26T17:19:24.418Z,36.86
2019-05-26T17:20:00.726Z,37.07
2019-05-26T17:20:35.952Z,37.34
2019-05-26T17:21:11.715Z,37.65
2019-05-26T17:21:47.764Z,37.84
2019-05-26T17:22:22.814Z,37.86
2019-05-26T17:22:58.300Z,37.67
2019-05-26T17:23:34.250Z,37.51
2019-05-26T17:24:09.470Z,37.93
2019-05-26T17:24:45.354Z,37.88
2019-05-26T17:25:21.234Z,37.96
2019-05-26T17:25:56.568Z,37.17
2019-05-26T17:26:32.482Z,37.27
2019-05-26T17:27:08.102Z,37.88
2019-05-26T17:27:43.250Z,38.76
2019-05-26T17:28:18.817Z,37.82
2019-05-26T17:28:54.593Z,37.07
2019-05-26T17:29:29.733Z,37.13
2019-05-26T17:30:08.084Z,37.10
2019-05-26T17:30:43.728Z,37.47
2019-05-26T17:31:18.872Z,37.49
2019-05-26T17:31:54.146Z,37.75
2019-05-26T17:32:29.786Z,37.76
2019-05-26T17:33:04.923Z,37.80
2019-05-26T17:33:40.590Z,37.77
2019-05-26T17:34:16.360Z,37.93
2019-05-26T17:34:51.648Z,38.31
2019-05-26T17:35:27.143Z,37.22
2019-05-26T17:36:02.396Z,36.81
2019-05-26T17:36:37.563Z,36.77
2019-05-26T17:37:12.967Z,37.21
2019-05-26T17:37:48.589Z,37.22
2019-05-26T17:38:23.716Z,37.34
2019-05-26T17:38:59.260Z,37.14
2019-05-26T17:39:34.885Z,37.21
2019-05-26T17:40:10.883Z,36.82
2019-05-26T17:40:46.438Z,36.99
2019-05-26T17:41:22.323Z,37.16
2019-05-26T17:41:57.636Z,37.13
2019-05-26T17:42:33.235Z,37.41
2019-05-26T17:43:08.759Z,37.58
2019-05-26T17:43:43.812Z,38.05
2019-05-26T17:44:19.372Z,38.34
2019-05-26T17:44:54.981Z,38.80
2019-05-26T17:45:30.021Z,38.81
2019-05-26T17:46:05.412Z,38.66
2019-05-26T17:46:41.346Z,38.47
2019-05-26T17:47:29.216Z,37.80
2019-05-26T17:47:53.572Z,38.02
2019-05-26T17:48:29.194Z,37.80
2019-05-26T17:49:04.542Z,37.74
2019-05-26T17:49:40.078Z,37.64
2019-05-26T17:50:16.739Z,38.45
2019-05-26T17:50:53.137Z,38.87
2019-05-26T17:51:28.942Z,39.74
2019-05-26T17:52:04.670Z,39.77
2019-05-26T17:52:39.787Z,39.44
2019-05-26T17:53:15.310Z,38.83
2019-05-26T17:53:51.132Z,38.35
2019-05-26T17:54:26.075Z,37.72
2019-05-26T17:55:01.459Z,37.86
2019-05-26T17:55:37.019Z,37.58
2019-05-26T17:56:12.353Z,37.99
2019-05-26T17:56:47.775Z,38.26
2019-05-26T17:57:23.578Z,38.22
2019-05-26T17:57:58.766Z,38.67
2019-05-26T17:58:34.152Z,38.85
2019-05-26T17:59:10.149Z,39.01
2019-05-26T17:59:45.129Z,39.26
2019-05-26T18:00:21.041Z,38.94
2019-05-26T18:00:56.831Z,38.18
2019-05-26T18:01:31.861Z,38.21
2019-05-26T18:02:07.946Z,38.82
2019-05-26T18:02:45.161Z,39.09
2019-05-26T18:03:20.507Z,38.87
2019-05-26T18:03:55.873Z,38.14
2019-05-26T18:04:31.400Z,38.92
2019-05-26T18:05:08.068Z,39.02
2019-05-26T18:05:43.306Z,38.98
2019-05-26T18:06:19.066Z,39.41
2019-05-26T18:06:54.011Z,39.60
2019-05-26T18:07:29.470Z,39.60
2019-05-26T18:08:05.389Z,39.54
2019-05-26T18:08:40.534Z,39.56
2019-05-26T18:09:16.013Z,39.69
2019-05-26T18:09:52.049Z,39.24
2019-05-26T18:10:27.351Z,39.32
2019-05-26T18:11:02.774Z,39.50
2019-05-26T18:11:38.224Z,39.55
2019-05-26T18:12:13.348Z,39.63
2019-05-26T18:12:48.829Z,39.69
2019-05-26T18:13:24.404Z,39.79
2019-05-26T18:13:59.408Z,39.59
2019-05-26T18:14:34.777Z,39.74
2019-05-26T18:15:11.792Z,39.95
2019-05-26T18:15:46.768Z,40.09
2019-05-26T18:16:22.084Z,40.34
2019-05-26T18:16:57.561Z,40.60
2019-05-26T18:17:45.890Z,40.55
2019-05-26T18:18:10.115Z,41.33
2019-05-26T18:18:45.669Z,41.27
2019-05-26T18:19:20.622Z,41.50
2019-05-26T18:19:56.017Z,40.77
2019-05-26T18:20:31.658Z,40.76
2019-05-26T18:21:06.708Z,41.19
2019-05-26T18:21:42.018Z,41.58
2019-05-26T18:22:17.600Z,41.46
2019-05-26T18:22:52.540Z,40.57
2019-05-26T18:23:27.951Z,40.49
2019-05-26T18:24:03.615Z,40.68
2019-05-26T18:24:38.592Z,40.65
2019-05-26T18:25:14.173Z,40.89
2019-05-26T18:25:49.726Z,41.45
2019-05-26T18:26:24.753Z,41.66
2019-05-26T18:27:00.223Z,41.92
2019-05-26T18:27:35.783Z,42.14
2019-05-26T18:28:10.800Z,42.37
2019-05-26T18:28:46.169Z,42.71
2019-05-26T18:29:21.694Z,42.10
2019-05-26T18:29:56.698Z,42.47
2019-05-26T18:30:31.889Z,42.71
2019-05-26T18:31:07.533Z,42.87
2019-05-26T18:31:42.628Z,43.33
2019-05-26T18:32:18.623Z,43.70
2019-05-26T18:32:54.246Z,43.64
2019-05-26T18:33:29.425Z,43.67
2019-05-26T18:34:04.917Z,43.84
2019-05-26T18:34:40.406Z,44.28
2019-05-26T18:35:15.836Z,44.47
2019-05-26T18:35:51.440Z,44.50
2019-05-26T18:36:26.886Z,44.60
2019-05-26T18:37:01.750Z,44.64
2019-05-26T18:37:37.073Z,44.72
2019-05-26T18:38:12.876Z,44.83
2019-05-26T18:38:47.916Z,45.06
2019-05-26T18:39:23.194Z,45.20
2019-05-26T18:39:58.834Z,45.29
2019-05-26T18:40:33.865Z,45.48
2019-05-26T18:41:43.633Z,46.00
2019-05-26T18:42:18.597Z,46.25
2019-05-26T18:42:54.098Z,46.28
2019-05-26T18:43:29.524Z,46.16
2019-05-26T18:44:04.695Z,45.75
2019-05-26T18:44:40.099Z,45.83
2019-05-26T18:45:15.803Z,45.93
2019-05-26T18:45:51.050Z,46.04
2019-05-26T18:46:26.667Z,46.11
2019-05-26T18:47:02.131Z,46.04
2019-05-26T18:47:37.388Z,45.86
2019-05-26T18:48:12.904Z,45.71
2019-05-26T18:48:48.365Z,45.80
2019-05-26T18:49:23.141Z,45.93
2019-05-26T18:49:59.407Z,46.12
2019-05-26T18:50:34.921Z,45.98
2019-05-26T18:51:15.016Z,45.83
2019-05-26T18:51:50.454Z,45.64
2019-05-26T18:52:25.896Z,45.83
2019-05-26T18:53:00.851Z,46.01
2019-05-26T18:53:36.508Z,45.82
2019-05-26T18:54:11.834Z,45.66
2019-05-26T18:54:47.456Z,45.88
2019-05-26T18:55:23.243Z,45.91
2019-05-26T18:55:58.925Z,45.96
2019-05-26T18:56:33.981Z,46.11
2019-05-26T18:57:09.545Z,46.11
2019-05-26T18:57:44.991Z,46.22
2019-05-26T18:58:19.927Z,46.18
2019-05-26T18:58:55.417Z,46.26
2019-05-26T18:59:31.121Z,46.40
2019-05-26T19:00:09.878Z,46.52
2019-05-26T19:00:45.423Z,46.78
2019-05-26T19:01:20.766Z,46.86
2019-05-26T19:01:55.710Z,47.02
2019-05-26T19:02:31.210Z,46.86
2019-05-26T19:03:06.746Z,46.74
2019-05-26T19:03:41.552Z,46.66
2019-05-26T19:04:17.552Z,46.79
2019-05-26T19:04:53.230Z,46.74
2019-05-26T19:05:34.506Z,46.89
2019-05-26T19:06:05.588Z,46.92
2019-05-26T19:06:40.862Z,47.11
2019-05-26T19:07:15.933Z,47.17
2019-05-26T19:07:51.626Z,47.42
2019-05-26T19:08:26.875Z,47.53
2019-05-26T19:09:02.408Z,47.66
2019-05-26T19:09:38.020Z,47.72
2019-05-26T19:10:15.600Z,47.90
2019-05-26T19:10:50.652Z,47.98
2019-05-26T19:11:26.293Z,48.02
2019-05-26T19:12:01.666Z,48.14
2019-05-26T19:12:36.659Z,47.97
2019-05-26T19:13:12.228Z,47.96
2019-05-26T19:13:47.558Z,47.86
2019-05-26T19:14:22.789Z,48.04
2019-05-26T19:14:59.279Z,48.30
2019-05-26T19:15:35.017Z,48.45
2019-05-26T19:16:10.130Z,48.02
2019-05-26T19:16:45.598Z,48.08
2019-05-26T19:17:21.072Z,48.23
2019-05-26T19:17:56.079Z,48.27
2019-05-26T19:18:31.639Z,48.30
2019-05-26T19:19:06.965Z,48.12
2019-05-26T19:19:41.980Z,48.21
2019-05-26T19:20:18.287Z,48.30
2019-05-26T19:20:53.739Z,48.40
2019-05-26T19:21:28.717Z,48.37
2019-05-26T19:22:03.718Z,48.19
2019-05-26T19:22:39.240Z,48.37
2019-05-26T19:23:14.242Z,48.30
2019-05-26T19:23:49.602Z,48.24
2019-05-26T19:24:24.958Z,48.49
2019-05-26T19:25:00.134Z,48.64
2019-05-26T19:25:36.816Z,48.75
2019-05-26T19:26:12.233Z,48.84
2019-05-26T19:26:47.328Z,48.64
2019-05-26T19:27:22.939Z,48.65
2019-05-26T19:27:58.188Z,48.78
2019-05-26T19:28:33.123Z,48.95
2019-05-26T19:29:08.673Z,48.91
2019-05-26T19:29:44.224Z,48.92
2019-05-26T19:30:19.616Z,49.02
2019-05-26T19:30:55.009Z,49.00
2019-05-26T19:31:30.584Z,49.16
2019-05-26T19:32:05.843Z,49.08
2019-05-26T19:32:41.325Z,49.02
2019-05-26T19:33:16.567Z,48.66
2019-05-26T19:33:51.749Z,48.72
2019-05-26T19:34:27.342Z,48.96
2019-05-26T19:35:02.820Z,49.05
2019-05-26T19:35:37.846Z,49.14
2019-05-26T19:36:13.295Z,49.12
2019-05-26T19:36:48.859Z,49.20
2019-05-26T19:37:23.856Z,49.26
2019-05-26T19:37:59.202Z,49.28
2019-05-26T19:38:34.598Z,49.33